createdAt,value
2022-08-11T00:00:25.113Z,0.00
2022-08-11T00:01:25.098Z,0.00
2022-08-11T00:02:32.120Z,0.00
2022-08-11T00:03:42.541Z,0.00
2022-08-11T00:04:32.574Z,0.00
2022-08-11T00:05:25.134Z,0.00
2022-08-11T00:06:25.045Z,0.00
2022-08-11T00:07:25.034Z,0.00
2022-08-11T00:08:28.024Z,0.00
2022-08-11T00:09:32.132Z,0.00
2022-08-11T00:10:25.012Z,0.00
2022-08-11T00:11:26.982Z,0.00
2022-08-11T00:12:24.984Z,0.00
2022-08-11T00:13:24.973Z,0.00
2022-08-11T00:14:24.963Z,0.00
2022-08-11T00:15:24.973Z,0.00
2022-08-11T00:16:24.933Z,0.00
2022-08-11T00:17:31.938Z,0.00
2022-08-11T00:18:24.915Z,0.00
2022-08-11T00:20:11.643Z,0.00
2022-08-11T00:20:25.937Z,0.00
2022-08-11T00:22:02.747Z,0.00
2022-08-11T00:22:25.877Z,0.00
2022-08-11T00:23:27.870Z,0.00
2022-08-11T00:24:24.870Z,0.00
2022-08-11T00:25:24.887Z,0.00
2022-08-11T00:26:24.834Z,0.00
2022-08-11T00:27:24.819Z,0.00
2022-08-11T00:28:24.817Z,0.00
2022-08-11T00:29:31.826Z,0.00
2022-08-11T00:30:24.794Z,0.00
2022-08-11T00:31:24.784Z,0.00
2022-08-11T00:32:24.782Z,0.00
2022-08-11T00:33:41.411Z,0.00
2022-08-11T00:34:25.754Z,0.00
2022-08-11T00:35:55.548Z,0.00
2022-08-11T00:36:25.841Z,0.00
2022-08-11T00:37:24.754Z,0.00
2022-08-11T00:38:27.712Z,0.00
2022-08-11T00:39:28.946Z,0.00
2022-08-11T00:40:24.685Z,0.00
2022-08-11T00:41:24.685Z,0.00
2022-08-11T00:42:24.701Z,0.00
2022-08-11T00:43:24.667Z,0.00
2022-08-11T00:44:24.648Z,0.00
2022-08-11T00:45:24.639Z,0.00
2022-08-11T00:46:24.617Z,0.00
2022-08-11T00:47:24.651Z,0.00
2022-08-11T00:48:24.600Z,0.00
2022-08-11T00:49:24.587Z,0.00
2022-08-11T00:50:24.587Z,0.00
2022-08-11T00:51:24.569Z,0.00
2022-08-11T00:52:25.595Z,0.00
2022-08-11T00:53:27.553Z,0.00
2022-08-11T00:54:33.196Z,0.00
2022-08-11T00:55:24.546Z,0.00
2022-08-11T00:56:31.620Z,0.00
2022-08-11T00:57:36.074Z,0.00
2022-08-11T00:58:24.501Z,0.00
2022-08-11T00:59:35.318Z,0.00
2022-08-11T01:00:24.481Z,0.00
2022-08-11T01:01:24.572Z,0.00
2022-08-11T01:02:24.463Z,0.00
2022-08-11T01:03:24.452Z,0.00
2022-08-11T01:04:24.444Z,0.00
2022-08-11T01:05:24.434Z,0.00
2022-08-11T01:06:24.413Z,0.00
2022-08-11T01:08:01.380Z,0.00
2022-08-11T01:08:28.417Z,0.00
2022-08-11T01:09:24.398Z,0.00
2022-08-11T01:10:24.373Z,0.00
2022-08-11T01:11:24.368Z,0.00
2022-08-11T01:12:24.354Z,0.00
2022-08-11T01:13:24.364Z,0.00
2022-08-11T01:14:34.091Z,0.00
2022-08-11T01:15:24.329Z,0.00
2022-08-11T01:16:24.316Z,0.00
2022-08-11T01:17:24.304Z,0.00
2022-08-11T01:18:28.297Z,0.00
2022-08-11T01:19:24.287Z,0.00
2022-08-11T01:20:45.138Z,0.00
2022-08-11T01:21:25.278Z,0.00
2022-08-11T01:22:24.256Z,0.00
2022-08-11T01:23:27.239Z,0.00
2022-08-11T01:24:24.248Z,0.00
2022-08-11T01:25:24.231Z,0.00
2022-08-11T01:26:24.367Z,0.00
2022-08-11T01:27:24.199Z,0.00
2022-08-11T01:28:24.240Z,0.00
2022-08-11T01:29:24.183Z,0.00
2022-08-11T01:30:31.234Z,0.00
2022-08-11T01:31:24.156Z,0.00
2022-08-11T01:32:24.152Z,0.00
2022-08-11T01:33:24.139Z,0.00
2022-08-11T01:34:24.996Z,0.00
2022-08-11T01:35:24.109Z,0.00
2022-08-11T01:36:24.128Z,0.00
2022-08-11T01:37:24.088Z,0.00
2022-08-11T01:38:27.091Z,0.00
2022-08-11T01:39:24.119Z,0.00
2022-08-11T01:40:24.060Z,0.00
2022-08-11T01:41:24.061Z,0.00
2022-08-11T01:42:24.045Z,0.00
2022-08-11T01:43:24.029Z,0.00
2022-08-11T01:44:24.062Z,0.00
2022-08-11T01:45:24.136Z,0.00
2022-08-11T01:46:24.003Z,0.00
2022-08-11T01:47:23.992Z,0.00
2022-08-11T01:48:23.982Z,0.00
2022-08-11T01:50:05.907Z,0.00
2022-08-11T01:50:24.963Z,0.00
2022-08-11T01:51:23.958Z,0.00
2022-08-11T01:52:30.203Z,0.00
2022-08-11T01:53:26.974Z,0.00
2022-08-11T01:54:23.943Z,0.00
2022-08-11T01:55:23.905Z,0.00
2022-08-11T01:56:23.901Z,0.00
2022-08-11T01:57:23.895Z,0.00
2022-08-11T01:58:36.261Z,0.00
2022-08-11T01:59:24.863Z,0.00
2022-08-11T02:00:23.869Z,0.00
2022-08-11T02:01:23.910Z,0.00
2022-08-11T02:02:23.826Z,0.00
2022-08-11T02:03:23.844Z,0.00
2022-08-11T02:04:23.820Z,0.00
2022-08-11T02:05:23.827Z,0.00
2022-08-11T02:06:23.803Z,0.00
2022-08-11T02:07:23.776Z,0.00
2022-08-11T02:08:33.060Z,0.00
2022-08-11T02:09:23.788Z,0.00
2022-08-11T02:10:26.786Z,0.00
2022-08-11T02:11:23.748Z,0.00
2022-08-11T02:12:23.756Z,0.00
2022-08-11T02:13:35.704Z,0.00
2022-08-11T02:14:23.710Z,0.00
2022-08-11T02:15:23.697Z,0.00
2022-08-11T02:16:23.689Z,0.00
2022-08-11T02:17:23.681Z,0.00
2022-08-11T02:18:23.822Z,0.00
2022-08-11T02:19:23.667Z,0.00
2022-08-11T02:20:23.672Z,0.00
2022-08-11T02:21:23.639Z,0.00
2022-08-11T02:22:23.633Z,0.00
2022-08-11T02:24:07.118Z,0.00
2022-08-11T02:24:24.621Z,0.00
2022-08-11T02:25:23.621Z,0.00
2022-08-11T02:26:23.592Z,0.00
2022-08-11T02:27:23.611Z,0.00
2022-08-11T02:28:23.603Z,0.00
2022-08-11T02:29:23.557Z,0.00
2022-08-11T02:30:23.556Z,0.00
2022-08-11T02:32:24.175Z,0.00
2022-08-11T02:32:30.560Z,0.00
2022-08-11T02:33:23.562Z,0.00
2022-08-11T02:34:23.505Z,0.00
2022-08-11T02:35:23.493Z,0.00
2022-08-11T02:36:23.483Z,0.00
2022-08-11T02:37:23.708Z,0.00
2022-08-11T02:38:26.464Z,0.00
2022-08-11T02:39:23.527Z,0.00
2022-08-11T02:40:23.438Z,0.00
2022-08-11T02:41:23.429Z,0.00
2022-08-11T02:42:32.706Z,0.00
2022-08-11T02:43:23.419Z,0.00
2022-08-11T02:44:23.409Z,0.00
2022-08-11T02:45:23.397Z,0.00
2022-08-11T02:46:23.378Z,0.00
2022-08-11T02:47:23.404Z,0.00
2022-08-11T02:48:23.361Z,0.00
2022-08-11T02:49:23.350Z,0.00
2022-08-11T02:50:23.344Z,0.00
2022-08-11T02:51:23.332Z,0.00
2022-08-11T02:52:23.325Z,0.00
2022-08-11T02:53:26.306Z,0.00
2022-08-11T02:54:23.344Z,0.00
2022-08-11T02:55:55.710Z,0.00
2022-08-11T02:56:24.281Z,0.00
2022-08-11T02:57:23.259Z,0.00
2022-08-11T02:58:26.890Z,0.00
2022-08-11T02:59:23.249Z,0.00
2022-08-11T03:00:23.232Z,0.00
2022-08-11T03:01:23.305Z,0.00
2022-08-11T03:02:23.224Z,0.00
2022-08-11T03:03:23.201Z,0.00
2022-08-11T03:04:23.192Z,0.00
2022-08-11T03:05:23.183Z,0.00
2022-08-11T03:06:23.184Z,0.00
2022-08-11T03:07:29.199Z,0.00
2022-08-11T03:08:26.145Z,0.00
2022-08-11T03:09:23.155Z,0.00
2022-08-11T03:10:23.138Z,0.00
2022-08-11T03:11:23.125Z,0.00
2022-08-11T03:12:23.107Z,0.00
2022-08-11T03:13:23.107Z,0.00
2022-08-11T03:14:23.087Z,0.00
2022-08-11T03:15:23.081Z,0.00
2022-08-11T03:16:23.109Z,0.00
2022-08-11T03:17:23.055Z,0.00
2022-08-11T03:18:23.057Z,0.00
2022-08-11T03:19:23.036Z,0.00
2022-08-11T03:20:23.017Z,0.00
2022-08-11T03:21:24.047Z,0.00
2022-08-11T03:22:24.006Z,0.00
2022-08-11T03:23:25.999Z,0.00
2022-08-11T03:24:23.000Z,0.00
2022-08-11T03:25:23.022Z,0.00
2022-08-11T03:26:22.959Z,0.00
2022-08-11T03:27:22.958Z,0.00
2022-08-11T03:28:22.962Z,0.00
2022-08-11T03:29:24.924Z,0.00
2022-08-11T03:30:22.919Z,0.00
2022-08-11T03:31:22.913Z,0.00
2022-08-11T03:32:22.901Z,0.00
2022-08-11T03:33:22.892Z,0.00
2022-08-11T03:34:22.877Z,0.00
2022-08-11T03:35:22.943Z,0.00
2022-08-11T03:36:22.865Z,0.00
2022-08-11T03:37:22.859Z,0.00
2022-08-11T03:38:30.620Z,0.00
2022-08-11T03:39:22.874Z,0.00
2022-08-11T03:40:22.773Z,1.00
2022-08-11T03:42:01.281Z,0.00
2022-08-11T03:42:23.823Z,0.00
2022-08-11T03:43:22.823Z,0.00
2022-08-11T03:44:22.786Z,0.00
2022-08-11T03:45:22.764Z,0.00
2022-08-11T03:46:22.827Z,0.00
2022-08-11T03:47:22.707Z,4.00
2022-08-11T03:48:22.692Z,2.00
2022-08-11T03:49:22.677Z,3.00
2022-08-11T03:50:22.704Z,2.00
2022-08-11T03:51:22.646Z,2.00
2022-08-11T03:52:22.637Z,3.00
2022-08-11T03:53:25.636Z,5.00
2022-08-11T03:54:22.635Z,4.00
2022-08-11T03:55:22.614Z,8.00
2022-08-11T03:56:22.629Z,7.00
2022-08-11T03:57:22.580Z,8.00
2022-08-11T03:58:22.586Z,8.00
2022-08-11T03:59:22.558Z,12.00
2022-08-11T04:00:22.561Z,15.00
2022-08-11T04:01:22.602Z,17.00
2022-08-11T04:02:22.566Z,20.00
2022-08-11T04:03:22.533Z,26.00
2022-08-11T04:04:22.510Z,31.00
2022-08-11T04:05:22.501Z,39.00
2022-08-11T04:06:22.503Z,44.00
2022-08-11T04:07:22.482Z,53.00
2022-08-11T04:08:25.463Z,62.00
2022-08-11T04:09:22.478Z,75.00
2022-08-11T04:10:22.453Z,85.00
2022-08-11T04:11:22.442Z,97.00
2022-08-11T04:12:35.789Z,111.00
2022-08-11T04:13:22.413Z,129.00
2022-08-11T04:14:22.412Z,143.00
2022-08-11T04:15:22.442Z,161.00
2022-08-11T04:16:22.399Z,179.00
2022-08-11T04:17:22.656Z,194.00
2022-08-11T04:18:22.381Z,212.00
2022-08-11T04:19:22.365Z,237.00
2022-08-11T04:20:22.345Z,258.00
2022-08-11T04:21:22.356Z,286.00
2022-08-11T04:22:22.335Z,315.00
2022-08-11T04:24:34.607Z,343.00
2022-08-11T04:24:38.179Z,365.00
2022-08-11T04:25:23.286Z,399.00
2022-08-11T04:26:22.299Z,433.00
2022-08-11T04:27:22.283Z,466.00
2022-08-11T04:28:29.331Z,496.00
2022-08-11T04:29:22.258Z,530.00
2022-08-11T04:30:23.248Z,567.00
2022-08-11T04:31:50.589Z,602.00
2022-08-11T04:32:23.221Z,646.00
2022-08-11T04:33:22.239Z,684.00
2022-08-11T04:34:22.197Z,721.00
2022-08-11T04:35:22.190Z,763.00
2022-08-11T04:36:22.179Z,798.00
2022-08-11T04:37:22.171Z,841.00
2022-08-11T04:38:25.250Z,885.00
2022-08-11T04:39:22.292Z,924.00
2022-08-11T04:40:22.129Z,970.00
2022-08-11T04:41:22.120Z,1015.00
2022-08-11T04:42:22.117Z,1056.00
2022-08-11T04:43:22.216Z,1100.00
2022-08-11T04:44:22.091Z,1144.00
2022-08-11T04:45:22.090Z,1188.00
2022-08-11T04:46:22.071Z,1234.00
2022-08-11T04:47:22.060Z,1276.00
2022-08-11T04:48:22.050Z,1322.00
2022-08-11T04:49:25.520Z,1359.00
2022-08-11T04:50:22.022Z,1399.00
2022-08-11T04:51:22.019Z,1448.00
2022-08-11T04:52:22.009Z,1475.00
2022-08-11T04:53:26.006Z,1506.00
2022-08-11T04:54:26.382Z,1534.00
2022-08-11T04:55:21.973Z,1563.00
2022-08-11T04:56:21.991Z,1594.00
2022-08-11T04:57:21.955Z,1621.00
2022-08-11T04:58:21.946Z,1658.00
2022-08-11T04:59:21.933Z,1690.00
2022-08-11T05:00:21.940Z,1722.00
2022-08-11T05:01:21.972Z,1754.00
2022-08-11T05:02:22.006Z,1788.00
2022-08-11T05:03:21.906Z,1819.00
2022-08-11T05:04:21.916Z,1848.00
2022-08-11T05:05:21.885Z,1877.00
2022-08-11T05:06:21.866Z,1910.00
2022-08-11T05:07:21.853Z,1937.00
2022-08-11T05:08:24.836Z,1972.00
2022-08-11T05:09:21.849Z,2004.00
2022-08-11T05:10:21.819Z,2040.00
2022-08-11T05:11:21.841Z,2083.00
2022-08-11T05:12:21.802Z,2118.00
2022-08-11T05:13:21.791Z,2149.00
2022-08-11T05:14:23.051Z,2185.00
2022-08-11T05:15:21.759Z,2222.00
2022-08-11T05:16:28.863Z,2248.00
2022-08-11T05:17:28.971Z,2280.00
2022-08-11T05:18:21.730Z,2308.00
2022-08-11T05:19:21.730Z,2338.00
2022-08-11T05:20:21.702Z,2368.00
2022-08-11T05:21:28.725Z,2397.00
2022-08-11T05:23:32.832Z,2472.00
2022-08-11T05:24:39.811Z,2479.00
2022-08-11T05:26:43.220Z,2510.00
2022-08-11T05:26:47.373Z,2535.00
2022-08-11T05:27:33.753Z,2564.00
2022-08-11T05:28:32.772Z,2588.00
2022-08-11T05:29:32.753Z,2615.00
2022-08-11T05:30:34.697Z,2643.00
2022-08-11T05:31:32.728Z,2671.00
2022-08-11T05:32:32.719Z,2702.00
2022-08-11T05:33:32.694Z,2725.00
2022-08-11T05:34:32.705Z,2753.00
2022-08-11T05:36:00.552Z,2783.00
2022-08-11T05:36:36.657Z,2814.00
2022-08-11T05:37:32.664Z,2843.00
2022-08-11T05:38:39.650Z,2872.00
2022-08-11T05:39:36.388Z,2901.00
2022-08-11T05:40:32.629Z,2929.00
2022-08-11T05:41:32.629Z,2959.00
2022-08-11T05:42:40.759Z,2982.00
2022-08-11T05:43:39.615Z,3007.00
2022-08-11T05:44:33.577Z,3034.00
2022-08-11T05:45:57.377Z,3059.00
2022-08-11T05:46:39.611Z,3085.00
2022-08-11T05:47:32.541Z,3112.00
2022-08-11T05:48:39.550Z,3134.00
2022-08-11T05:49:39.537Z,3157.00
2022-08-11T05:50:33.479Z,3180.00
2022-08-11T05:51:52.389Z,3202.00
2022-08-11T05:52:32.526Z,3223.00
2022-08-11T05:53:45.940Z,3247.00
2022-08-11T05:54:39.500Z,3270.00
2022-08-11T05:55:32.458Z,3292.00
2022-08-11T05:56:33.446Z,3318.00
2022-08-11T05:57:45.487Z,3342.00
2022-08-11T05:58:36.847Z,3362.00
2022-08-11T05:59:32.425Z,3383.00
2022-08-11T06:00:32.413Z,3409.00
2022-08-11T06:01:32.430Z,3431.00
2022-08-11T06:02:32.548Z,3452.00
2022-08-11T06:03:39.409Z,3474.00
2022-08-11T06:04:33.368Z,3503.00
2022-08-11T06:05:32.351Z,3524.00
2022-08-11T06:06:35.333Z,3546.00
2022-08-11T06:07:48.844Z,3567.00
2022-08-11T06:08:32.320Z,3597.00
2022-08-11T06:09:32.309Z,3620.00
2022-08-11T06:10:32.331Z,3642.00
2022-08-11T06:11:43.244Z,3664.00
2022-08-11T06:12:32.314Z,3691.00
2022-08-11T06:13:32.358Z,3715.00
2022-08-11T06:14:32.300Z,3738.00
2022-08-11T06:15:32.240Z,3759.00
2022-08-11T06:16:32.242Z,3785.00
2022-08-11T06:17:38.564Z,3803.00
2022-08-11T06:18:32.215Z,3824.00
2022-08-11T06:20:32.247Z,3869.00
2022-08-11T06:21:35.183Z,3894.00
2022-08-11T06:22:32.233Z,3921.00
2022-08-11T06:23:32.197Z,3949.00
2022-08-11T06:24:32.175Z,3977.00
2022-08-11T06:25:32.145Z,3999.00
2022-08-11T06:26:40.683Z,4024.00
2022-08-11T06:27:33.114Z,4056.00
2022-08-11T06:28:32.124Z,4081.00
2022-08-11T06:29:38.106Z,4106.00
2022-08-11T06:30:33.086Z,4133.00
2022-08-11T06:31:32.064Z,4153.00
2022-08-11T06:32:32.089Z,4180.00
2022-08-11T06:33:32.089Z,4201.00
2022-08-11T06:34:32.041Z,4227.00
2022-08-11T06:35:32.056Z,4251.00
2022-08-11T06:36:35.024Z,4275.00
2022-08-11T06:37:36.257Z,4305.00
2022-08-11T06:38:32.004Z,4326.00
2022-08-11T06:39:32.027Z,4349.00
2022-08-11T06:40:31.983Z,4369.00
2022-08-11T06:41:32.161Z,4391.00
2022-08-11T06:42:31.958Z,4413.00
2022-08-11T06:43:31.969Z,4433.00
2022-08-11T06:44:31.947Z,4457.00
2022-08-11T06:45:31.937Z,4481.00
2022-08-11T06:46:31.928Z,4502.00
2022-08-11T06:47:31.966Z,4533.00
2022-08-11T06:48:31.941Z,4567.00
2022-08-11T06:49:31.896Z,4612.00
2022-08-11T06:50:31.902Z,2550.00
2022-08-11T06:51:34.878Z,2309.00
2022-08-11T06:52:35.389Z,12865.00
2022-08-11T06:53:31.852Z,22315.00
2022-08-11T06:54:31.830Z,19973.00
2022-08-11T06:55:58.063Z,14424.00
2022-08-11T06:56:32.822Z,12183.00
2022-08-11T06:57:31.843Z,12026.00
2022-08-11T06:58:31.814Z,13979.00
2022-08-11T06:59:31.786Z,15320.00
2022-08-11T07:00:33.106Z,16448.00
2022-08-11T07:01:31.782Z,11472.00
2022-08-11T07:02:31.881Z,3874.00
2022-08-11T07:03:31.770Z,13045.00
2022-08-11T07:04:31.753Z,51637.00
2022-08-11T07:05:31.719Z,78378.00
2022-08-11T07:06:50.514Z,70120.00
2022-08-11T07:07:32.717Z,24762.00
2022-08-11T07:08:34.002Z,5992.00
2022-08-11T07:09:31.716Z,12175.00
2022-08-11T07:10:31.666Z,18127.00
2022-08-11T07:11:31.664Z,20922.00
2022-08-11T07:12:31.654Z,19875.00
2022-08-11T07:13:44.183Z,15560.00
2022-08-11T07:14:36.326Z,9467.00
2022-08-11T07:16:13.292Z,7917.00
2022-08-11T07:16:32.610Z,11728.00
2022-08-11T07:17:31.590Z,14964.00
2022-08-11T07:18:31.592Z,17920.00
2022-08-11T07:19:31.624Z,23226.00
2022-08-11T07:20:31.564Z,22089.00
2022-08-11T07:22:00.620Z,13198.00
2022-08-11T07:22:32.554Z,9480.00
2022-08-11T07:23:31.534Z,15715.00
2022-08-11T07:24:34.579Z,23899.00
2022-08-11T07:25:32.503Z,23404.00
2022-08-11T07:26:31.490Z,18388.00
2022-08-11T07:27:35.501Z,17298.00
2022-08-11T07:28:31.481Z,17618.00
2022-08-11T07:29:31.539Z,15196.00
2022-08-11T07:30:31.455Z,13862.00
2022-08-11T07:31:31.437Z,17909.00
2022-08-11T07:32:31.435Z,22981.00
2022-08-11T07:34:05.880Z,20392.00
2022-08-11T07:34:32.442Z,14069.00
2022-08-11T07:35:31.402Z,15879.00
2022-08-11T07:36:34.405Z,22153.00
2022-08-11T07:37:31.397Z,24434.00
2022-08-11T07:38:31.377Z,24126.00
2022-08-11T07:39:31.449Z,22693.00
2022-08-11T07:40:31.350Z,25386.00
2022-08-11T07:41:31.394Z,31624.00
2022-08-11T07:42:31.338Z,34670.00
2022-08-11T07:43:31.329Z,31354.00
2022-08-11T07:44:35.076Z,26412.00
2022-08-11T07:45:31.307Z,25855.00
2022-08-11T07:46:31.304Z,26155.00
2022-08-11T07:47:31.289Z,23064.00
2022-08-11T07:49:31.331Z,18083.00
2022-08-11T07:50:31.256Z,18603.00
2022-08-11T07:51:34.242Z,18325.00
2022-08-11T07:52:31.243Z,21003.00
2022-08-11T07:53:31.221Z,26355.00
2022-08-11T07:54:32.207Z,30635.00
2022-08-11T07:55:50.782Z,30880.00
2022-08-11T07:56:54.405Z,27667.00
2022-08-11T07:57:56.291Z,26371.00
2022-08-11T07:58:39.519Z,29350.00
2022-08-11T08:00:00.460Z,30003.00
2022-08-11T08:00:32.133Z,25589.00
2022-08-11T08:01:31.175Z,21213.00
2022-08-11T08:02:31.118Z,24084.00
2022-08-11T08:03:31.114Z,30718.00
2022-08-11T08:04:31.114Z,35430.00
2022-08-11T08:05:31.108Z,34705.00
2022-08-11T08:06:36.042Z,28713.00
2022-08-11T08:07:31.078Z,21483.00
2022-08-11T08:08:31.057Z,19076.00
2022-08-11T08:09:31.046Z,21731.00
2022-08-11T08:10:31.054Z,26242.00
2022-08-11T08:11:31.036Z,30655.00
2022-08-11T08:12:31.022Z,71764.00
2022-08-11T08:13:30.998Z,72305.00
2022-08-11T08:14:30.988Z,73608.00
2022-08-11T08:15:30.978Z,74209.00
2022-08-11T08:16:31.069Z,73806.00
2022-08-11T08:17:30.958Z,73382.00
2022-08-11T08:18:30.948Z,73240.00
2022-08-11T08:19:30.932Z,73131.00
2022-08-11T08:20:30.920Z,72458.00
2022-08-11T08:21:33.945Z,72067.00
2022-08-11T08:22:38.717Z,72823.00
2022-08-11T08:23:30.893Z,73628.00
2022-08-11T08:24:30.878Z,73753.00
2022-08-11T08:25:30.875Z,73575.00
2022-08-11T08:26:30.867Z,72609.00
2022-08-11T08:27:30.996Z,74075.00
2022-08-11T08:28:32.642Z,74060.00
2022-08-11T08:29:30.831Z,74008.00
2022-08-11T08:30:30.855Z,74449.00
2022-08-11T08:31:30.826Z,75454.00
2022-08-11T08:32:30.789Z,75828.00
2022-08-11T08:33:30.782Z,75264.00
2022-08-11T08:34:32.218Z,74365.00
2022-08-11T08:35:33.129Z,74387.00
2022-08-11T08:36:34.757Z,75179.00
2022-08-11T08:37:45.641Z,76026.00
2022-08-11T08:38:31.729Z,76524.00
2022-08-11T08:39:30.763Z,76595.00
2022-08-11T08:40:30.729Z,76715.00
2022-08-11T08:41:30.699Z,76968.00
2022-08-11T08:42:30.690Z,77192.00
2022-08-11T08:43:32.520Z,77464.00
2022-08-11T08:44:41.209Z,77664.00
2022-08-11T08:45:30.661Z,77669.00
2022-08-11T08:46:30.718Z,77301.00
2022-08-11T08:47:41.597Z,76377.00
2022-08-11T08:48:30.676Z,75869.00
2022-08-11T08:49:40.266Z,76148.00
2022-08-11T08:50:30.608Z,76367.00
2022-08-11T08:51:57.872Z,76081.00
2022-08-11T08:52:35.894Z,75736.00
2022-08-11T08:53:30.590Z,76011.00
2022-08-11T08:54:30.560Z,76002.00
2022-08-11T08:55:30.542Z,75984.00
2022-08-11T08:57:30.533Z,77182.00
2022-08-11T08:58:30.563Z,77782.00
2022-08-11T08:59:47.891Z,78270.00
2022-08-11T09:00:31.506Z,78953.00
2022-08-11T09:01:30.531Z,79327.00
2022-08-11T09:02:34.872Z,79579.00
2022-08-11T09:04:02.792Z,80354.00
2022-08-11T09:04:31.466Z,79852.00
2022-08-11T09:05:30.447Z,79782.00
2022-08-11T09:06:33.441Z,80053.00
2022-08-11T09:07:38.763Z,80570.00
2022-08-11T09:08:30.415Z,80246.00
2022-08-11T09:09:30.449Z,79508.00
2022-08-11T09:10:30.432Z,78990.00
2022-08-11T09:11:30.380Z,78590.00
2022-08-11T09:12:36.350Z,78760.00
2022-08-11T09:13:30.370Z,79546.00
2022-08-11T09:14:30.350Z,79176.00
2022-08-11T09:15:30.353Z,78692.00
2022-08-11T09:16:30.322Z,80149.00
2022-08-11T09:17:30.319Z,80755.00
2022-08-11T09:18:33.611Z,81350.00
2022-08-11T09:19:30.296Z,81377.00
2022-08-11T09:20:30.323Z,79535.00
2022-08-11T09:21:41.703Z,78890.00
2022-08-11T09:22:30.282Z,79042.00
2022-08-11T09:24:31.252Z,77860.00
2022-08-11T09:25:30.233Z,78912.00
2022-08-11T09:26:37.260Z,78685.00
2022-08-11T09:27:30.225Z,77570.00
2022-08-11T09:28:30.206Z,77873.00
2022-08-11T09:29:30.183Z,78266.00
2022-08-11T09:30:30.211Z,78778.00
2022-08-11T09:31:30.171Z,79589.00
2022-08-11T09:32:30.163Z,79797.00
2022-08-11T09:33:30.152Z,79809.00
2022-08-11T09:34:30.134Z,79777.00
2022-08-11T09:35:30.156Z,80575.00
2022-08-11T09:36:33.118Z,81741.00
2022-08-11T09:37:56.012Z,82010.00
2022-08-11T09:38:31.098Z,81230.00
2022-08-11T09:39:31.231Z,80276.00
2022-08-11T09:40:30.126Z,79794.00
2022-08-11T09:42:00.945Z,79968.00
2022-08-11T09:42:31.058Z,80233.00
2022-08-11T09:43:30.058Z,80357.00
2022-08-11T09:44:30.043Z,80559.00
2022-08-11T09:45:40.174Z,80824.00
2022-08-11T09:46:30.008Z,79614.00
2022-08-11T09:47:30.167Z,80345.00
2022-08-11T09:48:37.050Z,80062.00
2022-08-11T09:49:29.979Z,80541.00
2022-08-11T09:50:29.970Z,81833.00
2022-08-11T09:51:32.954Z,81321.00
2022-08-11T09:52:29.976Z,81218.00
2022-08-11T09:53:36.628Z,82080.00
2022-08-11T09:54:30.013Z,81423.00
2022-08-11T09:56:29.926Z,80240.00
2022-08-11T09:58:41.791Z,80847.00
2022-08-11T09:59:29.875Z,80817.00
2022-08-11T10:00:29.866Z,80953.00
2022-08-11T10:01:29.981Z,81208.00
2022-08-11T10:02:29.896Z,81821.00
2022-08-11T10:03:29.839Z,81953.00
2022-08-11T10:04:29.815Z,82009.00
2022-08-11T10:05:29.807Z,80942.00
2022-08-11T10:06:34.244Z,81706.00
2022-08-11T10:07:29.796Z,81983.00
2022-08-11T10:08:29.788Z,81757.00
2022-08-11T10:09:29.771Z,82182.00
2022-08-11T10:10:29.771Z,81899.00
2022-08-11T10:11:29.749Z,81939.00
2022-08-11T10:12:29.788Z,81283.00
2022-08-11T10:14:31.260Z,81690.00
2022-08-11T10:14:34.814Z,77917.00
2022-08-11T10:15:29.715Z,72522.00
2022-08-11T10:16:29.701Z,82419.00
2022-08-11T10:17:29.683Z,81501.00
2022-08-11T10:18:29.716Z,81615.00
2022-08-11T10:19:29.673Z,81502.00
2022-08-11T10:20:29.653Z,81803.00
2022-08-11T10:21:32.658Z,81841.00
2022-08-11T10:22:32.956Z,79993.00
2022-08-11T10:23:29.632Z,80005.00
2022-08-11T10:24:29.613Z,81535.00
2022-08-11T10:25:29.617Z,81574.00
2022-08-11T10:26:29.600Z,82203.00
2022-08-11T10:28:28.865Z,81337.00
2022-08-11T10:28:49.792Z,79438.00
2022-08-11T10:30:42.369Z,79347.00
2022-08-11T10:31:57.246Z,81619.00
2022-08-11T10:33:57.650Z,80937.00
2022-08-11T10:34:54.513Z,79997.00
2022-08-11T10:35:52.768Z,79775.00
2022-08-11T10:36:52.761Z,79597.00
2022-08-11T10:38:06.352Z,79360.00
2022-08-11T10:38:53.766Z,78875.00
2022-08-11T10:39:52.810Z,78958.00
2022-08-11T10:40:52.725Z,79822.00
2022-08-11T10:42:06.148Z,80164.00
2022-08-11T10:42:57.661Z,80512.00
2022-08-11T10:44:02.435Z,80496.00
2022-08-11T10:44:52.693Z,79573.00
2022-08-11T10:45:52.665Z,78390.00
2022-08-11T10:46:55.665Z,77776.00
2022-08-11T10:47:52.656Z,77709.00
2022-08-11T10:48:52.638Z,77549.00
2022-08-11T10:49:52.648Z,77455.00
2022-08-11T10:50:52.628Z,77900.00
2022-08-11T10:51:53.886Z,78361.00
2022-08-11T10:52:52.598Z,78514.00
2022-08-11T10:53:52.691Z,78571.00
2022-08-11T10:54:52.589Z,78648.00
2022-08-11T10:55:52.684Z,79102.00
2022-08-11T10:56:52.551Z,80650.00
2022-08-11T10:58:04.164Z,81457.00
2022-08-11T10:58:52.532Z,81687.00
2022-08-11T10:59:52.523Z,80915.00
2022-08-11T11:00:52.559Z,79659.00
2022-08-11T11:01:55.541Z,78702.00
2022-08-11T11:03:22.241Z,78823.00
2022-08-11T11:03:53.492Z,79165.00
2022-08-11T11:04:52.475Z,79509.00
2022-08-11T11:06:28.901Z,79430.00
2022-08-11T11:06:53.487Z,78645.00
2022-08-11T11:07:52.454Z,78085.00
2022-08-11T11:08:52.584Z,78081.00
2022-08-11T11:09:53.425Z,77698.00
2022-08-11T11:10:52.426Z,79392.00
2022-08-11T11:11:52.427Z,78090.00
2022-08-11T11:12:52.396Z,77852.00
2022-08-11T11:13:53.267Z,78821.00
2022-08-11T11:14:58.273Z,80076.00
2022-08-11T11:15:52.369Z,80602.00
2022-08-11T11:16:55.390Z,81041.00
2022-08-11T11:17:52.390Z,81495.00
2022-08-11T11:19:01.176Z,80926.00
2022-08-11T11:19:52.339Z,79676.00
2022-08-11T11:20:52.375Z,78363.00
2022-08-11T11:21:52.304Z,77960.00
2022-08-11T11:22:52.304Z,78244.00
2022-08-11T11:23:52.291Z,79529.00
2022-08-11T11:24:52.285Z,80376.00
2022-08-11T11:25:56.775Z,79980.00
2022-08-11T11:26:52.254Z,78948.00
2022-08-11T11:27:52.248Z,78406.00
2022-08-11T11:28:52.291Z,78387.00
2022-08-11T11:29:52.235Z,78972.00
2022-08-11T11:30:52.226Z,78852.00
2022-08-11T11:31:55.200Z,77890.00
2022-08-11T11:32:52.207Z,77077.00
2022-08-11T11:34:06.419Z,76666.00
2022-08-11T11:34:54.010Z,76344.00
2022-08-11T11:35:52.164Z,75919.00
2022-08-11T11:36:52.160Z,76145.00
2022-08-11T11:38:03.426Z,77252.00
2022-08-11T11:38:52.149Z,77983.00
2022-08-11T11:39:52.239Z,77536.00
2022-08-11T11:40:52.121Z,76047.00
2022-08-11T11:41:52.198Z,76016.00
2022-08-11T11:42:52.115Z,75989.00
2022-08-11T11:43:52.241Z,77269.00
2022-08-11T11:44:55.461Z,78301.00
2022-08-11T11:45:52.091Z,78946.00
2022-08-11T11:46:56.701Z,79121.00
2022-08-11T11:47:52.077Z,77861.00
2022-08-11T11:48:52.048Z,76161.00
2022-08-11T11:49:52.054Z,76131.00
2022-08-11T11:50:53.715Z,76173.00
2022-08-11T11:51:52.005Z,76107.00
2022-08-11T11:52:51.996Z,76085.00
2022-08-11T11:53:51.987Z,76023.00
2022-08-11T11:54:52.009Z,75871.00
2022-08-11T11:55:51.970Z,76154.00
2022-08-11T11:56:51.971Z,76352.00
2022-08-11T11:57:59.337Z,76677.00
2022-08-11T11:58:51.927Z,77268.00
2022-08-11T11:59:51.939Z,77727.00
2022-08-11T12:00:51.922Z,78461.00
2022-08-11T12:01:54.899Z,78824.00
2022-08-11T12:02:51.927Z,78161.00
2022-08-11T12:03:51.879Z,77209.00
2022-08-11T12:04:51.888Z,77248.00
2022-08-11T12:05:51.861Z,78104.00
2022-08-11T12:06:51.850Z,79179.00
2022-08-11T12:08:05.197Z,79101.00
2022-08-11T12:08:52.851Z,78899.00
2022-08-11T12:09:51.845Z,78264.00
2022-08-11T12:10:51.831Z,77296.00
2022-08-11T12:11:51.793Z,75783.00
2022-08-11T12:12:51.782Z,75829.00
2022-08-11T12:13:51.783Z,75787.00
2022-08-11T12:14:51.793Z,75844.00
2022-08-11T12:16:31.851Z,75904.00
2022-08-11T12:16:54.752Z,77330.00
2022-08-11T12:17:52.854Z,79185.00
2022-08-11T12:18:51.789Z,79408.00
2022-08-11T12:19:51.730Z,77726.00
2022-08-11T12:20:51.717Z,76792.00
2022-08-11T12:21:51.699Z,77222.00
2022-08-11T12:22:51.689Z,77610.00
2022-08-11T12:23:51.682Z,77607.00
2022-08-11T12:24:51.673Z,76699.00
2022-08-11T12:26:10.036Z,76157.00
2022-08-11T12:27:14.750Z,77507.00
2022-08-11T12:27:52.658Z,79344.00
2022-08-11T12:28:51.631Z,80961.00